createdAt,value
2018-09-01T00:00:38.042Z,11.20
2018-09-01T00:03:06.340Z,13.65
2018-09-01T00:05:34.372Z,12.58
2018-09-01T00:08:02.558Z,9.53
2018-09-01T00:10:30.596Z,15.18
2018-09-01T00:12:58.638Z,10.78
2018-09-01T00:15:26.716Z,13.68
2018-09-01T00:17:54.787Z,10.65
2018-09-01T00:20:22.827Z,12.37
2018-09-01T00:22:50.873Z,13.60
2018-09-01T00:25:19.000Z,9.98
2018-09-01T00:27:47.036Z,13.32
2018-09-01T00:30:15.102Z,14.35
2018-09-01T00:32:43.163Z,12.10
2018-09-01T00:35:11.204Z,11.18
2018-09-01T00:37:44.760Z,10.65
2018-09-01T00:40:12.824Z,12.25
2018-09-01T00:42:40.900Z,12.53
2018-09-01T00:45:09.010Z,15.45
2018-09-01T00:47:37.073Z,14.05
2018-09-01T00:50:05.304Z,10.63
2018-09-01T00:52:33.392Z,13.35
2018-09-01T00:55:01.435Z,13.95
2018-09-01T00:57:29.505Z,10.53
2018-09-01T00:59:57.555Z,10.00
2018-09-01T01:02:25.644Z,13.15
2018-09-01T01:04:53.704Z,13.35
2018-09-01T01:07:21.760Z,9.80
2018-09-01T01:09:49.885Z,12.65
2018-09-01T01:12:17.944Z,13.30
2018-09-01T01:14:45.988Z,12.80
2018-09-01T01:17:14.047Z,14.30
2018-09-01T01:19:42.108Z,15.20
2018-09-01T01:22:10.155Z,9.80
2018-09-01T01:24:38.368Z,10.70
2018-09-01T01:27:06.481Z,14.20
2018-09-01T01:29:34.520Z,15.03
2018-09-01T01:32:02.592Z,13.08
2018-09-01T01:34:30.640Z,12.53
2018-09-01T01:36:58.701Z,12.70
2018-09-01T01:39:26.779Z,16.37
2018-09-01T01:41:54.841Z,17.40
2018-09-01T01:44:22.888Z,15.78
2018-09-01T01:46:50.915Z,16.37
2018-09-01T01:49:19.017Z,13.55
2018-09-01T01:51:47.096Z,12.75
2018-09-01T01:54:15.158Z,14.58
2018-09-01T01:56:43.213Z,16.93
2018-09-01T01:59:11.263Z,13.10
2018-09-01T02:01:39.304Z,16.87
2018-09-01T02:04:07.396Z,18.80
2018-09-01T02:06:35.444Z,18.25
2018-09-01T02:09:03.736Z,12.47
2018-09-01T02:11:31.793Z,15.90
2018-09-01T02:13:59.846Z,16.23
2018-09-01T02:16:27.941Z,16.97
2018-09-01T02:18:55.933Z,15.68
2018-09-01T02:21:24.011Z,16.05
2018-09-01T02:23:52.110Z,14.50
2018-09-01T02:26:20.148Z,18.32
2018-09-01T02:28:48.216Z,17.92
2018-09-01T02:31:16.260Z,14.68
2018-09-01T02:33:44.344Z,15.28
2018-09-01T02:36:12.403Z,17.53
2018-09-01T02:38:40.476Z,16.65
2018-09-01T02:41:08.522Z,17.90
2018-09-01T02:43:36.560Z,20.60
2018-09-01T02:46:04.614Z,16.52
2018-09-01T02:48:32.692Z,20.70
2018-09-01T02:51:00.739Z,16.87
2018-09-01T02:53:28.759Z,13.75
2018-09-01T02:55:57.082Z,18.02
2018-09-01T02:58:25.120Z,12.93
2018-09-01T03:00:58.543Z,14.40
2018-09-01T03:03:26.599Z,16.13
2018-09-01T03:05:54.711Z,17.25
2018-09-01T03:08:22.756Z,17.42
2018-09-01T03:10:50.810Z,16.67
2018-09-01T03:13:18.844Z,15.85
2018-09-01T03:15:46.908Z,16.75
2018-09-01T03:18:14.970Z,15.45
2018-09-01T03:20:43.020Z,17.98
2018-09-01T03:23:11.059Z,18.80
2018-09-01T03:25:39.148Z,17.85
2018-09-01T03:28:07.183Z,16.82
2018-09-01T03:30:35.245Z,14.47
2018-09-01T03:33:03.313Z,14.95
2018-09-01T03:35:31.358Z,20.63
2018-09-01T03:37:59.397Z,17.15
2018-09-01T03:40:27.464Z,18.30
2018-09-01T03:42:55.620Z,16.30
2018-09-01T03:45:23.677Z,16.48
2018-09-01T03:47:52.192Z,21.73
2018-09-01T03:50:20.297Z,16.42
2018-09-01T03:52:48.349Z,16.80
2018-09-01T03:55:16.611Z,15.55
2018-09-01T03:57:44.652Z,16.95
2018-09-01T04:00:12.711Z,19.33
2018-09-01T04:02:40.724Z,17.05
2018-09-01T04:05:09.024Z,18.45
2018-09-01T04:07:37.126Z,17.67
2018-09-01T04:10:05.168Z,17.87
2018-09-01T04:12:33.220Z,18.40
2018-09-01T04:15:01.303Z,19.73
2018-09-01T04:17:29.384Z,19.07
2018-09-01T04:19:57.441Z,20.80
2018-09-01T04:22:25.489Z,16.97
2018-09-01T04:24:53.552Z,19.82
2018-09-01T04:27:21.607Z,18.42
2018-09-01T04:29:49.687Z,19.00
2018-09-01T04:32:17.745Z,16.67
2018-09-01T04:34:45.776Z,18.37
2018-09-01T04:37:13.835Z,19.73
2018-09-01T04:39:41.913Z,18.40
2018-09-01T04:42:09.981Z,20.67
2018-09-01T04:44:38.053Z,18.12
2018-09-01T04:47:06.254Z,18.70
2018-09-01T04:49:34.255Z,17.20
2018-09-01T04:52:02.329Z,17.15
2018-09-01T04:54:30.372Z,18.17
2018-09-01T04:56:58.423Z,16.90
2018-09-01T04:59:26.500Z,18.42
2018-09-01T05:01:54.544Z,18.27
2018-09-01T05:04:22.672Z,16.77
2018-09-01T05:06:50.735Z,17.02
2018-09-01T05:09:18.762Z,16.40
2018-09-01T05:11:46.804Z,16.80
2018-09-01T05:14:14.867Z,16.02
2018-09-01T05:16:42.943Z,15.75
2018-09-01T05:19:11.018Z,18.50
2018-09-01T05:21:39.040Z,19.42
2018-09-01T05:24:07.097Z,17.35
2018-09-01T05:26:35.131Z,15.75
2018-09-01T05:29:03.171Z,15.60
2018-09-01T05:31:31.223Z,16.50
2018-09-01T05:33:59.271Z,20.72
2018-09-01T05:36:27.332Z,23.57
2018-09-01T05:38:55.392Z,20.37
2018-09-01T05:41:23.451Z,22.85
2018-09-01T05:43:51.477Z,20.37
2018-09-01T05:46:19.510Z,22.40
2018-09-01T05:48:47.547Z,21.57
2018-09-01T05:51:15.616Z,21.07
2018-09-01T05:53:43.667Z,24.30
2018-09-01T05:56:11.711Z,21.87
2018-09-01T05:58:39.744Z,20.12
2018-09-01T06:01:07.773Z,22.40
2018-09-01T06:03:35.816Z,26.77
2018-09-01T06:06:04.479Z,21.70
2018-09-01T06:08:32.481Z,19.20
2018-09-01T06:11:00.526Z,21.12
2018-09-01T06:13:28.568Z,21.30
2018-09-01T06:15:56.672Z,18.13
2018-09-01T06:18:24.770Z,18.35
2018-09-01T06:20:52.884Z,20.72
2018-09-01T06:23:21.044Z,21.67
2018-09-01T06:25:49.086Z,19.70
2018-09-01T06:29:21.628Z,18.52
2018-09-01T06:31:54.397Z,21.62
2018-09-01T06:34:22.583Z,21.90
2018-09-01T06:36:50.630Z,19.87
2018-09-01T06:39:18.699Z,19.10
2018-09-01T06:41:46.768Z,20.05
2018-09-01T06:44:14.830Z,20.12
2018-09-01T06:46:42.863Z,20.12
2018-09-01T06:49:10.940Z,20.57
2018-09-01T06:51:39.075Z,19.50
2018-09-01T06:54:07.082Z,21.10
2018-09-01T06:56:35.160Z,20.43
2018-09-01T06:59:03.227Z,21.15
2018-09-01T07:01:31.294Z,23.90
2018-09-01T07:03:59.328Z,22.67
2018-09-01T07:06:27.424Z,21.57
2018-09-01T07:08:55.499Z,21.52
2018-09-01T07:11:23.531Z,25.80
2018-09-01T07:13:51.589Z,22.65
2018-09-01T07:16:19.620Z,21.75
2018-09-01T07:18:47.688Z,21.68
2018-09-01T07:21:15.720Z,22.90
2018-09-01T07:23:43.820Z,22.05
2018-09-01T07:26:11.921Z,19.80
2018-09-01T07:28:39.981Z,20.30
2018-09-01T07:31:08.303Z,19.52
2018-09-01T07:33:36.113Z,20.50
2018-09-01T07:36:04.164Z,21.73
2018-09-01T07:38:32.223Z,21.68
2018-09-01T07:41:00.288Z,23.80
2018-09-01T07:43:28.336Z,21.45
2018-09-01T07:45:56.408Z,20.60
2018-09-01T07:48:24.460Z,20.02
2018-09-01T07:50:52.517Z,23.22
2018-09-01T07:53:20.552Z,20.90
2018-09-01T07:55:48.591Z,20.85
2018-09-01T07:58:16.624Z,20.27
2018-09-01T08:00:44.667Z,20.68
2018-09-01T08:03:12.728Z,21.97
2018-09-01T08:05:40.799Z,20.37
2018-09-01T08:08:08.878Z,18.60
2018-09-01T08:10:36.947Z,20.30
2018-09-01T08:13:05.322Z,17.67
2018-09-01T08:15:33.373Z,15.78
2018-09-01T08:18:01.454Z,16.90
2018-09-01T08:20:29.547Z,16.45
2018-09-01T08:22:57.595Z,15.13
2018-09-01T08:25:25.652Z,15.35
2018-09-01T08:27:53.714Z,17.17
2018-09-01T08:30:21.897Z,14.90
2018-09-01T08:32:50.372Z,13.65
2018-09-01T08:35:18.447Z,14.23
2018-09-01T08:37:46.496Z,14.28
2018-09-01T08:40:14.608Z,13.20
2018-09-01T08:42:42.584Z,13.28
2018-09-01T08:45:10.635Z,13.88
2018-09-01T08:47:38.656Z,14.05
2018-09-01T08:50:06.856Z,13.30
2018-09-01T08:52:34.896Z,12.65
2018-09-01T08:55:02.964Z,13.13
2018-09-01T08:57:30.992Z,12.87
2018-09-01T08:59:59.062Z,13.15
2018-09-01T09:02:27.088Z,12.37
2018-09-01T09:04:55.411Z,11.50
2018-09-01T09:07:23.456Z,10.65
2018-09-01T09:09:51.499Z,10.23
2018-09-01T09:12:19.587Z,8.50
2018-09-01T09:14:47.621Z,9.35
2018-09-01T09:17:15.668Z,9.30
2018-09-01T09:19:43.717Z,10.90
2018-09-01T09:22:11.972Z,9.18
2018-09-01T09:24:40.015Z,8.68
2018-09-01T09:27:08.068Z,7.28
2018-09-01T09:29:36.115Z,8.00
2018-09-01T09:32:04.176Z,7.12
2018-09-01T09:34:32.234Z,7.15
2018-09-01T09:37:00.245Z,7.00
2018-09-01T09:39:28.288Z,6.97
2018-09-01T09:41:56.371Z,7.45
2018-09-01T09:44:24.363Z,7.30
2018-09-01T09:46:52.396Z,7.40
2018-09-01T09:49:20.456Z,8.20
2018-09-01T09:51:48.587Z,9.45
2018-09-01T09:54:16.631Z,8.28
2018-09-01T09:56:44.692Z,7.30
2018-09-01T09:59:12.727Z,7.25
2018-09-01T10:01:41.628Z,8.85
2018-09-01T10:04:10.401Z,6.28
2018-09-01T10:06:38.788Z,5.30
2018-09-01T10:09:12.190Z,5.60
2018-09-01T10:11:40.972Z,6.83
2018-09-01T10:14:09.231Z,5.67
2018-09-01T10:16:37.286Z,5.67
2018-09-01T10:19:05.315Z,4.50
2018-09-01T10:21:33.401Z,4.00
2018-09-01T10:24:01.452Z,4.12
2018-09-01T10:26:30.175Z,4.17
2018-09-01T10:28:58.224Z,4.60
2018-09-01T10:31:26.298Z,4.37
2018-09-01T10:33:54.735Z,3.90
2018-09-01T10:36:22.879Z,4.17
2018-09-01T10:38:50.915Z,4.30
2018-09-01T10:41:18.976Z,4.70
2018-09-01T10:43:47.034Z,4.87
2018-09-01T10:46:15.058Z,4.95
2018-09-01T10:48:43.670Z,4.15
2018-09-01T10:51:11.695Z,3.55
2018-09-01T10:53:39.740Z,3.60
2018-09-01T10:56:07.810Z,4.07
2018-09-01T10:58:35.840Z,4.13
2018-09-01T11:01:03.887Z,4.17
2018-09-01T11:03:31.943Z,3.33
2018-09-01T11:05:59.964Z,9.08
2018-09-01T11:08:28.024Z,3.00
2018-09-01T11:10:56.060Z,3.37
2018-09-01T11:13:24.119Z,4.20
2018-09-01T11:15:52.165Z,3.65
2018-09-01T11:18:20.213Z,3.30
2018-09-01T11:20:48.331Z,4.12
2018-09-01T11:23:16.333Z,3.35
2018-09-01T11:25:44.387Z,3.08
2018-09-01T11:28:12.792Z,3.00
2018-09-01T11:30:40.828Z,3.72
2018-09-01T11:33:08.857Z,3.37
2018-09-01T11:35:36.884Z,5.90
2018-09-01T11:38:04.932Z,3.60
2018-09-01T11:40:33.022Z,3.50
2018-09-01T11:43:01.218Z,3.02
2018-09-01T11:45:29.132Z,4.08
2018-09-01T11:47:57.169Z,4.00
2018-09-01T11:50:25.215Z,7.92
2018-09-01T11:52:53.272Z,3.80
2018-09-01T11:55:21.296Z,4.55
2018-09-01T11:57:49.342Z,3.80
2018-09-01T12:00:17.400Z,3.30
2018-09-01T12:02:45.441Z,2.90
2018-09-01T12:05:13.507Z,3.00
2018-09-01T12:07:41.589Z,3.27
2018-09-01T12:10:09.924Z,2.70
2018-09-01T12:12:38.366Z,2.90
2018-09-01T12:15:06.436Z,2.50
2018-09-01T12:17:34.497Z,2.95
2018-09-01T12:20:02.578Z,4.35
2018-09-01T12:22:30.624Z,2.55
2018-09-01T12:24:58.689Z,3.10
2018-09-01T12:27:26.732Z,3.37
2018-09-01T12:29:54.781Z,3.50
2018-09-01T12:32:22.812Z,3.80
2018-09-01T12:34:50.888Z,4.00
2018-09-01T12:37:18.936Z,3.45
2018-09-01T12:39:47.005Z,4.53
2018-09-01T12:42:15.062Z,3.02
2018-09-01T12:44:43.112Z,5.17
2018-09-01T12:47:11.156Z,3.20
2018-09-01T12:49:39.188Z,4.20
2018-09-01T12:52:07.249Z,3.15
2018-09-01T12:54:35.304Z,4.80
2018-09-01T12:57:03.356Z,3.80
2018-09-01T12:59:31.393Z,3.20
2018-09-01T13:01:59.716Z,3.20
2018-09-01T13:04:27.756Z,2.85
2018-09-01T13:06:55.819Z,3.70
2018-09-01T13:09:23.919Z,3.10
2018-09-01T13:11:51.958Z,4.20
2018-09-01T13:14:19.997Z,3.60
2018-09-01T13:16:48.053Z,3.50
2018-09-01T13:19:16.143Z,4.40
2018-09-01T13:21:44.168Z,2.57
2018-09-01T13:24:12.224Z,2.87
2018-09-01T13:26:40.271Z,3.93
2018-09-01T13:29:08.300Z,3.30
2018-09-01T13:31:36.360Z,3.15
2018-09-01T13:34:04.398Z,2.98
2018-09-01T13:36:32.435Z,2.60
2018-09-01T13:39:00.515Z,2.75
2018-09-01T13:41:28.524Z,3.17
2018-09-01T13:43:56.580Z,3.33
2018-09-01T13:46:24.632Z,2.80
2018-09-01T13:48:52.668Z,3.40
2018-09-01T13:51:20.703Z,4.10
2018-09-01T13:53:48.815Z,3.05
2018-09-01T13:56:16.881Z,2.40
2018-09-01T13:58:44.940Z,3.08
2018-09-01T14:01:13.021Z,2.67
2018-09-01T14:03:41.064Z,3.83
2018-09-01T14:06:09.098Z,3.72
2018-09-01T14:08:37.143Z,3.10
2018-09-01T14:11:05.225Z,3.40
2018-09-01T14:13:33.281Z,3.10
2018-09-01T14:16:01.306Z,3.27
2018-09-01T14:18:29.369Z,2.80
2018-09-01T14:20:57.376Z,4.08
2018-09-01T14:23:25.419Z,3.47
2018-09-01T14:25:53.456Z,4.15
2018-09-01T14:28:21.587Z,3.52
2018-09-01T14:30:49.616Z,3.95
2018-09-01T14:33:17.660Z,3.65
2018-09-01T14:35:45.704Z,4.28
2018-09-01T14:38:13.756Z,2.90
2018-09-01T14:40:41.824Z,4.17
2018-09-01T14:43:09.895Z,3.50
2018-09-01T14:45:37.951Z,3.70
2018-09-01T14:48:06.028Z,2.90
2018-09-01T14:50:34.093Z,3.00
2018-09-01T14:53:02.154Z,2.60
2018-09-01T14:55:30.208Z,3.10
2018-09-01T14:57:58.228Z,4.65
2018-09-01T15:00:26.257Z,2.90
2018-09-01T15:02:54.296Z,3.57
2018-09-01T15:05:22.395Z,2.57
2018-09-01T15:07:50.375Z,4.37
2018-09-01T15:10:18.565Z,4.33
2018-09-01T15:12:46.600Z,3.17
2018-09-01T15:15:14.761Z,2.70
2018-09-01T15:17:42.801Z,4.80
2018-09-01T15:20:10.832Z,3.27
2018-09-01T15:22:38.975Z,4.75
2018-09-01T15:25:07.052Z,3.95
2018-09-01T15:27:37.204Z,4.12
2018-09-01T15:30:05.497Z,3.58
2018-09-01T15:32:33.555Z,3.77
2018-09-01T15:35:01.596Z,4.28
2018-09-01T15:37:29.657Z,3.10
2018-09-01T15:39:58.147Z,3.80
2018-09-01T15:42:26.188Z,3.40
2018-09-01T15:44:54.267Z,3.20
2018-09-01T15:47:22.331Z,3.30
2018-09-01T15:49:50.373Z,4.20
2018-09-01T15:52:18.424Z,3.80
2018-09-01T15:54:46.463Z,3.97
2018-09-01T15:57:14.512Z,4.70
2018-09-01T15:59:42.585Z,4.90
2018-09-01T16:02:10.653Z,3.90
2018-09-01T16:04:38.681Z,3.30
2018-09-01T16:07:06.729Z,5.60
2018-09-01T16:09:34.789Z,4.25
2018-09-01T16:12:02.828Z,4.60
2018-09-01T16:14:30.943Z,4.95
2018-09-01T16:16:58.987Z,4.12
2018-09-01T16:19:27.027Z,3.52
2018-09-01T16:21:55.100Z,5.10
2018-09-01T16:24:23.214Z,3.65
2018-09-01T16:26:51.257Z,4.50
2018-09-01T16:29:19.340Z,6.15
2018-09-01T16:31:47.397Z,4.60
2018-09-01T16:34:15.483Z,3.72
2018-09-01T16:36:43.512Z,4.15
2018-09-01T16:39:11.578Z,4.55
2018-09-01T16:41:39.636Z,3.30
2018-09-01T16:44:07.681Z,3.72
2018-09-01T16:46:35.703Z,3.95
2018-09-01T16:49:03.755Z,4.58
2018-09-01T16:51:31.818Z,5.20
2018-09-01T16:53:59.949Z,3.90
2018-09-01T16:56:27.978Z,3.72
2018-09-01T16:58:56.038Z,4.90
2018-09-01T17:01:24.100Z,4.50
2018-09-01T17:03:52.115Z,4.50
2018-09-01T17:06:20.187Z,3.33
2018-09-01T17:08:48.401Z,4.30
2018-09-01T17:11:16.473Z,3.92
2018-09-01T17:13:44.658Z,3.35
2018-09-01T17:16:12.740Z,3.87
2018-09-01T17:18:40.833Z,3.55
2018-09-01T17:21:09.067Z,3.77
2018-09-01T17:23:37.138Z,10.53
2018-09-01T17:26:05.453Z,4.05
2018-09-01T17:28:33.486Z,4.75
2018-09-01T17:31:01.548Z,4.33
2018-09-01T17:33:29.589Z,4.78
2018-09-01T17:35:57.644Z,3.70
2018-09-01T17:38:25.660Z,3.33
2018-09-01T17:40:53.745Z,5.40
2018-09-01T17:43:21.824Z,3.90
2018-09-01T17:45:50.167Z,4.70
2018-09-01T17:48:18.483Z,4.80
2018-09-01T17:50:46.492Z,4.45
2018-09-01T17:53:14.521Z,5.10
2018-09-01T17:55:42.592Z,4.90
2018-09-01T17:58:10.644Z,5.75
2018-09-01T18:00:38.693Z,9.33
2018-09-01T18:03:07.323Z,5.45
2018-09-01T18:05:35.361Z,3.83
2018-09-01T18:08:03.562Z,5.70
2018-09-01T18:10:31.636Z,4.87
2018-09-01T18:12:59.660Z,5.80
2018-09-01T18:15:27.719Z,6.03
2018-09-01T18:17:55.773Z,7.45
2018-09-01T18:20:23.848Z,6.70
2018-09-01T18:22:51.975Z,7.60
2018-09-01T18:25:19.936Z,6.40
2018-09-01T18:27:47.966Z,6.03
2018-09-01T18:30:16.036Z,5.30
2018-09-01T18:32:44.086Z,5.33
2018-09-01T18:35:12.110Z,5.22
2018-09-01T18:37:40.138Z,5.37
2018-09-01T18:40:08.173Z,6.67
2018-09-01T18:42:36.201Z,8.33
2018-09-01T18:45:04.528Z,5.75
2018-09-01T18:47:32.722Z,5.40
2018-09-01T18:50:00.665Z,5.00
2018-09-01T18:52:28.719Z,4.95
2018-09-01T18:54:57.588Z,5.10
2018-09-01T18:57:25.664Z,5.67
2018-09-01T18:59:53.669Z,6.65
2018-09-01T19:02:21.717Z,6.30
2018-09-01T19:04:49.795Z,5.33
2018-09-01T19:07:17.772Z,6.37
2018-09-01T19:09:45.844Z,6.90
2018-09-01T19:12:13.881Z,7.05
2018-09-01T19:14:41.922Z,6.80
2018-09-01T19:17:09.967Z,6.70
2018-09-01T19:19:38.004Z,6.65
2018-09-01T19:22:06.036Z,7.22
2018-09-01T19:24:34.151Z,6.78
2018-09-01T19:27:02.245Z,7.80
2018-09-01T19:29:30.260Z,7.35
2018-09-01T19:31:58.318Z,6.87
2018-09-01T19:34:26.340Z,7.45
2018-09-01T19:36:54.384Z,7.80
2018-09-01T19:39:22.428Z,6.83
2018-09-01T19:41:50.469Z,7.00
2018-09-01T19:44:18.495Z,6.30
2018-09-01T19:46:46.556Z,6.77
2018-09-01T19:49:14.594Z,6.80
2018-09-01T19:51:42.608Z,5.60
2018-09-01T19:54:10.692Z,6.08
2018-09-01T19:56:38.748Z,5.42
2018-09-01T19:59:06.787Z,6.62
2018-09-01T20:01:34.849Z,6.25
2018-09-01T20:04:02.908Z,5.47
2018-09-01T20:06:31.001Z,5.70
2018-09-01T20:08:59.068Z,6.40
2018-09-01T20:11:27.122Z,6.50
2018-09-01T20:13:55.163Z,7.85
2018-09-01T20:16:23.181Z,6.35
2018-09-01T20:18:51.284Z,6.75
2018-09-01T20:21:19.329Z,6.67
2018-09-01T20:23:47.356Z,6.75
2018-09-01T20:26:15.447Z,6.70
2018-09-01T20:28:43.496Z,8.10
2018-09-01T20:31:11.604Z,7.28
2018-09-01T20:33:39.644Z,8.25
2018-09-01T20:36:14.799Z,7.80
2018-09-01T20:38:43.296Z,8.10
2018-09-01T20:41:11.352Z,7.78
2018-09-01T20:43:39.401Z,9.90
2018-09-01T20:46:07.860Z,8.88
2018-09-01T20:48:35.936Z,8.97
2018-09-01T20:51:04.004Z,8.20
2018-09-01T20:53:32.044Z,8.83
2018-09-01T20:56:00.129Z,8.95
2018-09-01T20:58:28.220Z,9.35
2018-09-01T21:00:56.286Z,14.45
2018-09-01T21:03:24.358Z,11.33
2018-09-01T21:05:52.556Z,10.63
2018-09-01T21:08:20.880Z,9.90
2018-09-01T21:10:48.952Z,12.05
2018-09-01T21:13:17.084Z,11.93
2018-09-01T21:15:45.129Z,11.93
2018-09-01T21:18:13.163Z,10.45
2018-09-01T21:20:42.325Z,10.90
2018-09-01T21:23:10.422Z,11.05
2018-09-01T21:25:38.480Z,10.90
2018-09-01T21:28:06.518Z,13.00
2018-09-01T21:30:34.603Z,12.35
2018-09-01T21:33:02.643Z,12.30
2018-09-01T21:35:30.709Z,9.67
2018-09-01T21:37:58.757Z,10.55
2018-09-01T21:40:26.811Z,12.60
2018-09-01T21:42:54.884Z,12.30
2018-09-01T21:45:22.916Z,13.10
2018-09-01T21:47:51.013Z,13.25
2018-09-01T21:50:19.103Z,12.45
2018-09-01T21:52:47.166Z,13.38
2018-09-01T21:55:15.397Z,13.45
2018-09-01T21:57:43.451Z,13.80
2018-09-01T22:00:11.526Z,19.52
2018-09-01T22:02:39.584Z,14.20
2018-09-01T22:05:13.128Z,14.95
2018-09-01T22:07:41.212Z,18.67
2018-09-01T22:10:09.314Z,16.00
2018-09-01T22:12:37.360Z,14.90
2018-09-01T22:15:05.806Z,16.67
2018-09-01T22:17:33.853Z,13.85
2018-09-01T22:20:01.921Z,13.43
2018-09-01T22:22:29.987Z,13.75
2018-09-01T22:24:58.056Z,13.95
2018-09-01T22:27:26.111Z,14.75
2018-09-01T22:29:54.183Z,15.10
2018-09-01T22:32:22.233Z,14.83
2018-09-01T22:34:50.321Z,25.32
2018-09-01T22:37:18.376Z,15.05
2018-09-01T22:39:46.425Z,14.58
2018-09-01T22:42:14.519Z,14.70
2018-09-01T22:44:42.551Z,15.53
2018-09-01T22:47:14.087Z,15.50
2018-09-01T22:49:42.176Z,15.50
2018-09-01T22:52:10.227Z,16.42
2018-09-01T22:54:38.244Z,16.45
2018-09-01T22:57:06.336Z,15.85
2018-09-01T22:59:34.413Z,14.60
2018-09-01T23:02:02.455Z,15.43
2018-09-01T23:04:30.532Z,15.30
2018-09-01T23:06:58.584Z,15.53
2018-09-01T23:09:26.640Z,18.07
2018-09-01T23:11:54.668Z,19.00
2018-09-01T23:14:22.867Z,16.90
2018-09-01T23:16:50.906Z,15.88
2018-09-01T23:19:18.960Z,14.75
2018-09-01T23:21:47.007Z,16.25
2018-09-01T23:24:15.055Z,16.27
2018-09-01T23:26:43.144Z,16.52
2018-09-01T23:29:11.194Z,17.73
2018-09-01T23:31:39.273Z,16.50
2018-09-01T23:34:07.292Z,15.40
2018-09-01T23:36:35.329Z,17.80
2018-09-01T23:39:04.057Z,17.85
2018-09-01T23:41:32.115Z,16.77
2018-09-01T23:44:00.168Z,17.70
2018-09-01T23:46:28.206Z,16.02
2018-09-01T23:48:56.260Z,16.77
2018-09-01T23:51:24.366Z,22.45
2018-09-01T23:53:52.436Z,20.48
2018-09-01T23:56:20.489Z,20.27
2018-09-01T23:58:48.537Z,20.15
